sensor_id;sensor_type;location;lat;lon;timestamp;P1;durP1;ratioP1;P2;durP2;ratioP2
42000;SDS011;27689;48.390;10.856;2023-01-31T00:01:23;7.10;;;4.93;;
42000;SDS011;27689;48.390;10.856;2023-01-31T00:04:09;7.85;;;4.70;;
42000;SDS011;27689;48.390;10.856;2023-01-31T00:06:54;8.40;;;4.63;;
42000;SDS011;27689;48.390;10.856;2023-01-31T00:09:38;8.23;;;5.75;;
42000;SDS011;27689;48.390;10.856;2023-01-31T00:12:22;9.05;;;5.63;;
42000;SDS011;27689;48.390;10.856;2023-01-31T00:15:06;8.18;;;5.63;;
42000;SDS011;27689;48.390;10.856;2023-01-31T00:17:51;7.63;;;5.35;;
42000;SDS011;27689;48.390;10.856;2023-01-31T00:20:35;12.85;;;6.43;;
42000;SDS011;27689;48.390;10.856;2023-01-31T00:23:19;11.15;;;6.70;;
42000;SDS011;27689;48.390;10.856;2023-01-31T00:26:16;7.93;;;6.28;;
42000;SDS011;27689;48.390;10.856;2023-01-31T00:29:27;13.27;;;7.03;;
42000;SDS011;27689;48.390;10.856;2023-01-31T00:32:11;9.77;;;5.68;;
42000;SDS011;27689;48.390;10.856;2023-01-31T00:34:55;8.27;;;4.93;;
42000;SDS011;27689;48.390;10.856;2023-01-31T00:37:39;10.13;;;5.75;;
42000;SDS011;27689;48.390;10.856;2023-01-31T00:40:23;10.35;;;6.40;;
42000;SDS011;27689;48.390;10.856;2023-01-31T00:43:07;9.25;;;5.10;;
42000;SDS011;27689;48.390;10.856;2023-01-31T00:45:51;8.43;;;4.90;;
42000;SDS011;27689;48.390;10.856;2023-01-31T00:48:35;10.50;;;5.00;;
42000;SDS011;27689;48.390;10.856;2023-01-31T00:51:19;10.30;;;6.20;;
42000;SDS011;27689;48.390;10.856;2023-01-31T00:54:04;11.13;;;5.63;;
42000;SDS011;27689;48.390;10.856;2023-01-31T00:56:47;10.38;;;6.55;;
42000;SDS011;27689;48.390;10.856;2023-01-31T00:59:31;10.05;;;5.28;;
42000;SDS011;27689;48.390;10.856;2023-01-31T01:02:15;11.80;;;5.60;;
42000;SDS011;27689;48.390;10.856;2023-01-31T01:04:59;9.30;;;5.50;;
42000;SDS011;27689;48.390;10.856;2023-01-31T01:07:43;9.13;;;5.40;;
42000;SDS011;27689;48.390;10.856;2023-01-31T01:10:27;10.20;;;5.68;;
42000;SDS011;27689;48.390;10.856;2023-01-31T01:13:11;7.27;;;5.10;;
42000;SDS011;27689;48.390;10.856;2023-01-31T01:15:54;9.77;;;5.43;;
42000;SDS011;27689;48.390;10.856;2023-01-31T01:18:38;7.28;;;4.82;;
42000;SDS011;27689;48.390;10.856;2023-01-31T01:21:23;7.82;;;5.25;;
42000;SDS011;27689;48.390;10.856;2023-01-31T01:24:13;8.60;;;5.32;;
42000;SDS011;27689;48.390;10.856;2023-01-31T01:26:59;8.77;;;6.03;;
42000;SDS011;27689;48.390;10.856;2023-01-31T01:29:43;11.27;;;5.82;;
42000;SDS011;27689;48.390;10.856;2023-01-31T01:32:27;9.40;;;5.35;;
42000;SDS011;27689;48.390;10.856;2023-01-31T01:35:11;7.10;;;5.10;;
42000;SDS011;27689;48.390;10.856;2023-01-31T01:37:55;9.23;;;5.30;;
42000;SDS011;27689;48.390;10.856;2023-01-31T01:40:39;7.38;;;5.10;;
42000;SDS011;27689;48.390;10.856;2023-01-31T01:49:29;9.57;;;5.60;;
42000;SDS011;27689;48.390;10.856;2023-01-31T01:52:19;12.20;;;6.00;;
42000;SDS011;27689;48.390;10.856;2023-01-31T01:55:10;9.55;;;5.60;;
42000;SDS011;27689;48.390;10.856;2023-01-31T01:58:09;9.55;;;5.43;;
42000;SDS011;27689;48.390;10.856;2023-01-31T02:01:09;7.40;;;5.68;;
42000;SDS011;27689;48.390;10.856;2023-01-31T02:03:56;12.98;;;5.45;;
42000;SDS011;27689;48.390;10.856;2023-01-31T02:06:40;8.27;;;5.00;;
42000;SDS011;27689;48.390;10.856;2023-01-31T02:09:30;19.90;;;6.10;;
42000;SDS011;27689;48.390;10.856;2023-01-31T02:12:22;9.13;;;5.20;;
42000;SDS011;27689;48.390;10.856;2023-01-31T02:15:06;9.38;;;5.53;;
42000;SDS011;27689;48.390;10.856;2023-01-31T02:17:51;11.23;;;5.03;;
42000;SDS011;27689;48.390;10.856;2023-01-31T02:27:38;9.88;;;4.97;;
42000;SDS011;27689;48.390;10.856;2023-01-31T02:40:10;9.85;;;5.25;;
42000;SDS011;27689;48.390;10.856;2023-01-31T02:46:13;8.45;;;6.28;;
42000;SDS011;27689;48.390;10.856;2023-01-31T02:49:06;12.45;;;5.35;;
42000;SDS011;27689;48.390;10.856;2023-01-31T02:52:29;9.95;;;5.63;;
42000;SDS011;27689;48.390;10.856;2023-01-31T02:55:25;11.00;;;5.72;;
42000;SDS011;27689;48.390;10.856;2023-01-31T02:58:35;11.98;;;5.63;;
42000;SDS011;27689;48.390;10.856;2023-01-31T03:01:22;10.43;;;5.47;;
42000;SDS011;27689;48.390;10.856;2023-01-31T03:04:12;7.88;;;4.97;;
42000;SDS011;27689;48.390;10.856;2023-01-31T03:19:23;8.88;;;5.57;;
42000;SDS011;27689;48.390;10.856;2023-01-31T03:22:25;10.90;;;6.45;;
42000;SDS011;27689;48.390;10.856;2023-01-31T03:25:12;11.88;;;6.20;;
42000;SDS011;27689;48.390;10.856;2023-01-31T03:27:59;10.63;;;5.40;;
42000;SDS011;27689;48.390;10.856;2023-01-31T03:30:58;11.18;;;6.50;;
42000;SDS011;27689;48.390;10.856;2023-01-31T03:33:48;11.82;;;5.93;;
42000;SDS011;27689;48.390;10.856;2023-01-31T03:42:53;8.85;;;5.57;;
42000;SDS011;27689;48.390;10.856;2023-01-31T03:45:45;9.27;;;5.93;;
42000;SDS011;27689;48.390;10.856;2023-01-31T03:48:35;9.75;;;5.95;;
42000;SDS011;27689;48.390;10.856;2023-01-31T03:51:23;11.25;;;5.38;;
42000;SDS011;27689;48.390;10.856;2023-01-31T03:54:12;11.70;;;6.00;;
42000;SDS011;27689;48.390;10.856;2023-01-31T03:57:06;10.63;;;5.97;;
42000;SDS011;27689;48.390;10.856;2023-01-31T03:59:59;14.30;;;6.22;;
42000;SDS011;27689;48.390;10.856;2023-01-31T04:02:49;9.30;;;5.43;;
42000;SDS011;27689;48.390;10.856;2023-01-31T04:05:38;12.68;;;5.65;;
42000;SDS011;27689;48.390;10.856;2023-01-31T04:08:23;10.30;;;6.43;;
42000;SDS011;27689;48.390;10.856;2023-01-31T04:11:08;10.43;;;5.40;;
42000;SDS011;27689;48.390;10.856;2023-01-31T04:13:55;8.82;;;5.53;;
42000;SDS011;27689;48.390;10.856;2023-01-31T04:16:39;9.27;;;6.05;;
42000;SDS011;27689;48.390;10.856;2023-01-31T04:19:23;10.75;;;6.35;;
42000;SDS011;27689;48.390;10.856;2023-01-31T04:22:07;12.68;;;7.07;;
42000;SDS011;27689;48.390;10.856;2023-01-31T04:24:51;11.18;;;6.05;;
42000;SDS011;27689;48.390;10.856;2023-01-31T04:27:35;13.05;;;6.50;;
42000;SDS011;27689;48.390;10.856;2023-01-31T04:30:19;12.85;;;6.30;;
42000;SDS011;27689;48.390;10.856;2023-01-31T04:33:03;9.60;;;6.03;;
42000;SDS011;27689;48.390;10.856;2023-01-31T04:35:46;11.82;;;6.15;;
42000;SDS011;27689;48.390;10.856;2023-01-31T04:38:30;8.73;;;5.85;;
42000;SDS011;27689;48.390;10.856;2023-01-31T04:41:14;13.18;;;6.75;;
42000;SDS011;27689;48.390;10.856;2023-01-31T04:43:58;11.23;;;6.55;;
42000;SDS011;27689;48.390;10.856;2023-01-31T04:46:43;9.40;;;6.10;;
42000;SDS011;27689;48.390;10.856;2023-01-31T04:49:29;9.60;;;6.05;;
42000;SDS011;27689;48.390;10.856;2023-01-31T04:52:13;15.77;;;6.63;;
42000;SDS011;27689;48.390;10.856;2023-01-31T04:54:57;9.20;;;6.97;;
42000;SDS011;27689;48.390;10.856;2023-01-31T04:57:41;11.32;;;6.82;;
42000;SDS011;27689;48.390;10.856;2023-01-31T05:00:25;11.65;;;6.47;;
42000;SDS011;27689;48.390;10.856;2023-01-31T05:03:09;11.00;;;6.88;;
42000;SDS011;27689;48.390;10.856;2023-01-31T05:05:53;13.32;;;7.32;;
42000;SDS011;27689;48.390;10.856;2023-01-31T05:08:37;10.23;;;6.95;;
42000;SDS011;27689;48.390;10.856;2023-01-31T05:11:21;12.65;;;7.18;;
42000;SDS011;27689;48.390;10.856;2023-01-31T05:14:05;8.93;;;6.90;;
42000;SDS011;27689;48.390;10.856;2023-01-31T05:16:49;13.07;;;7.55;;
42000;SDS011;27689;48.390;10.856;2023-01-31T05:19:33;11.38;;;7.90;;
42000;SDS011;27689;48.390;10.856;2023-01-31T05:22:17;10.38;;;7.43;;
42000;SDS011;27689;48.390;10.856;2023-01-31T05:25:05;12.63;;;7.32;;
42000;SDS011;27689;48.390;10.856;2023-01-31T05:27:49;11.63;;;7.65;;
42000;SDS011;27689;48.390;10.856;2023-01-31T05:30:33;11.05;;;7.20;;
42000;SDS011;27689;48.390;10.856;2023-01-31T05:33:18;11.43;;;8.05;;
42000;SDS011;27689;48.390;10.856;2023-01-31T05:36:05;12.45;;;6.88;;
42000;SDS011;27689;48.390;10.856;2023-01-31T05:38:49;14.68;;;8.20;;
42000;SDS011;27689;48.390;10.856;2023-01-31T05:41:33;15.85;;;7.75;;
42000;SDS011;27689;48.390;10.856;2023-01-31T05:44:18;18.80;;;8.13;;
42000;SDS011;27689;48.390;10.856;2023-01-31T05:47:02;13.40;;;7.53;;
42000;SDS011;27689;48.390;10.856;2023-01-31T05:49:46;12.30;;;8.35;;
42000;SDS011;27689;48.390;10.856;2023-01-31T05:52:30;11.30;;;7.55;;
42000;SDS011;27689;48.390;10.856;2023-01-31T05:55:14;13.43;;;8.60;;
42000;SDS011;27689;48.390;10.856;2023-01-31T05:57:58;11.00;;;6.82;;
42000;SDS011;27689;48.390;10.856;2023-01-31T06:00:43;12.07;;;7.13;;
42000;SDS011;27689;48.390;10.856;2023-01-31T06:03:27;10.10;;;7.47;;
42000;SDS011;27689;48.390;10.856;2023-01-31T06:06:11;13.55;;;7.38;;
42000;SDS011;27689;48.390;10.856;2023-01-31T06:08:55;12.93;;;8.07;;
42000;SDS011;27689;48.390;10.856;2023-01-31T06:11:39;10.25;;;6.82;;
42000;SDS011;27689;48.390;10.856;2023-01-31T06:14:23;9.40;;;7.00;;
42000;SDS011;27689;48.390;10.856;2023-01-31T06:17:07;12.10;;;6.95;;
42000;SDS011;27689;48.390;10.856;2023-01-31T06:19:52;11.85;;;6.35;;
42000;SDS011;27689;48.390;10.856;2023-01-31T06:22:36;14.30;;;8.00;;
42000;SDS011;27689;48.390;10.856;2023-01-31T06:25:20;12.32;;;7.20;;
42000;SDS011;27689;48.390;10.856;2023-01-31T06:28:03;14.60;;;7.57;;
42000;SDS011;27689;48.390;10.856;2023-01-31T06:30:48;14.10;;;7.00;;
42000;SDS011;27689;48.390;10.856;2023-01-31T06:33:32;11.90;;;6.93;;
42000;SDS011;27689;48.390;10.856;2023-01-31T06:36:16;13.57;;;6.47;;
42000;SDS011;27689;48.390;10.856;2023-01-31T06:39:00;11.57;;;6.70;;
42000;SDS011;27689;48.390;10.856;2023-01-31T06:41:44;10.80;;;7.05;;
42000;SDS011;27689;48.390;10.856;2023-01-31T06:44:28;12.57;;;6.57;;
42000;SDS011;27689;48.390;10.856;2023-01-31T06:47:12;15.10;;;7.20;;
42000;SDS011;27689;48.390;10.856;2023-01-31T06:49:57;12.52;;;6.38;;
42000;SDS011;27689;48.390;10.856;2023-01-31T06:52:42;12.95;;;7.10;;
42000;SDS011;27689;48.390;10.856;2023-01-31T06:55:26;8.77;;;6.60;;
42000;SDS011;27689;48.390;10.856;2023-01-31T07:00:54;12.77;;;6.10;;
42000;SDS011;27689;48.390;10.856;2023-01-31T07:03:38;13.35;;;6.82;;
42000;SDS011;27689;48.390;10.856;2023-01-31T07:06:22;14.80;;;6.40;;
42000;SDS011;27689;48.390;10.856;2023-01-31T07:09:06;17.83;;;6.90;;
42000;SDS011;27689;48.390;10.856;2023-01-31T07:11:50;12.63;;;6.65;;
42000;SDS011;27689;48.390;10.856;2023-01-31T07:14:34;15.95;;;7.18;;
42000;SDS011;27689;48.390;10.856;2023-01-31T07:17:18;14.68;;;7.35;;
42000;SDS011;27689;48.390;10.856;2023-01-31T07:20:05;12.07;;;6.63;;
42000;SDS011;27689;48.390;10.856;2023-01-31T07:22:54;12.68;;;7.03;;
42000;SDS011;27689;48.390;10.856;2023-01-31T07:25:39;11.52;;;6.18;;
42000;SDS011;27689;48.390;10.856;2023-01-31T07:28:23;15.73;;;6.68;;
42000;SDS011;27689;48.390;10.856;2023-01-31T07:31:08;13.45;;;6.50;;
42000;SDS011;27689;48.390;10.856;2023-01-31T07:33:55;10.68;;;7.00;;
42000;SDS011;27689;48.390;10.856;2023-01-31T07:36:39;16.60;;;6.50;;
42000;SDS011;27689;48.390;10.856;2023-01-31T07:39:23;14.85;;;6.75;;
42000;SDS011;27689;48.390;10.856;2023-01-31T07:42:07;10.55;;;6.70;;
42000;SDS011;27689;48.390;10.856;2023-01-31T07:44:51;13.43;;;6.88;;
42000;SDS011;27689;48.390;10.856;2023-01-31T07:47:34;16.58;;;6.72;;
42000;SDS011;27689;48.390;10.856;2023-01-31T07:50:18;11.80;;;7.38;;
42000;SDS011;27689;48.390;10.856;2023-01-31T07:53:02;13.52;;;7.05;;
42000;SDS011;27689;48.390;10.856;2023-01-31T07:55:46;12.98;;;7.10;;
42000;SDS011;27689;48.390;10.856;2023-01-31T07:58:30;15.55;;;7.70;;
42000;SDS011;27689;48.390;10.856;2023-01-31T08:01:20;12.25;;;6.80;;
42000;SDS011;27689;48.390;10.856;2023-01-31T08:04:24;12.70;;;7.15;;
42000;SDS011;27689;48.390;10.856;2023-01-31T08:07:08;11.27;;;6.72;;
42000;SDS011;27689;48.390;10.856;2023-01-31T08:09:52;17.05;;;6.63;;
42000;SDS011;27689;48.390;10.856;2023-01-31T08:12:36;15.00;;;7.45;;
42000;SDS011;27689;48.390;10.856;2023-01-31T08:15:20;21.52;;;7.53;;
42000;SDS011;27689;48.390;10.856;2023-01-31T08:18:04;13.83;;;6.60;;
42000;SDS011;27689;48.390;10.856;2023-01-31T08:20:48;16.27;;;6.40;;
42000;SDS011;27689;48.390;10.856;2023-01-31T08:23:32;11.60;;;6.93;;
42000;SDS011;27689;48.390;10.856;2023-01-31T08:26:17;12.65;;;6.93;;
42000;SDS011;27689;48.390;10.856;2023-01-31T08:29:02;9.73;;;6.32;;
42000;SDS011;27689;48.390;10.856;2023-01-31T08:31:46;10.48;;;6.03;;
42000;SDS011;27689;48.390;10.856;2023-01-31T08:34:31;16.08;;;6.75;;
42000;SDS011;27689;48.390;10.856;2023-01-31T08:37:15;14.48;;;6.78;;
42000;SDS011;27689;48.390;10.856;2023-01-31T08:39:59;10.02;;;6.45;;
42000;SDS011;27689;48.390;10.856;2023-01-31T08:42:43;11.98;;;6.43;;
42000;SDS011;27689;48.390;10.856;2023-01-31T08:45:27;10.23;;;5.78;;
42000;SDS011;27689;48.390;10.856;2023-01-31T08:48:12;10.43;;;6.30;;
42000;SDS011;27689;48.390;10.856;2023-01-31T08:50:55;12.82;;;6.78;;
42000;SDS011;27689;48.390;10.856;2023-01-31T08:53:42;11.73;;;6.15;;
42000;SDS011;27689;48.390;10.856;2023-01-31T08:56:27;9.30;;;6.07;;
42000;SDS011;27689;48.390;10.856;2023-01-31T08:59:11;11.80;;;5.88;;
42000;SDS011;27689;48.390;10.856;2023-01-31T09:01:55;9.63;;;6.00;;
42000;SDS011;27689;48.390;10.856;2023-01-31T09:04:39;10.40;;;6.10;;
42000;SDS011;27689;48.390;10.856;2023-01-31T09:07:22;13.70;;;6.45;;
42000;SDS011;27689;48.390;10.856;2023-01-31T09:10:06;12.15;;;5.78;;
42000;SDS011;27689;48.390;10.856;2023-01-31T09:12:51;10.35;;;5.00;;
42000;SDS011;27689;48.390;10.856;2023-01-31T09:15:35;10.48;;;4.97;;
42000;SDS011;27689;48.390;10.856;2023-01-31T09:18:19;11.68;;;5.25;;
42000;SDS011;27689;48.390;10.856;2023-01-31T09:21:04;10.60;;;4.63;;
42000;SDS011;27689;48.390;10.856;2023-01-31T09:23:53;13.07;;;5.00;;
42000;SDS011;27689;48.390;10.856;2023-01-31T09:26:41;11.63;;;6.47;;
42000;SDS011;27689;48.390;10.856;2023-01-31T09:29:25;13.57;;;6.65;;
42000;SDS011;27689;48.390;10.856;2023-01-31T09:32:10;13.02;;;6.53;;
42000;SDS011;27689;48.390;10.856;2023-01-31T09:34:54;10.63;;;6.00;;
42000;SDS011;27689;48.390;10.856;2023-01-31T09:37:38;12.25;;;6.40;;
42000;SDS011;27689;48.390;10.856;2023-01-31T09:40:22;17.80;;;7.57;;
42000;SDS011;27689;48.390;10.856;2023-01-31T09:43:09;12.23;;;6.13;;
42000;SDS011;27689;48.390;10.856;2023-01-31T09:45:55;13.60;;;5.88;;
42000;SDS011;27689;48.390;10.856;2023-01-31T09:48:43;18.40;;;7.97;;
42000;SDS011;27689;48.390;10.856;2023-01-31T09:51:32;11.80;;;5.68;;
42000;SDS011;27689;48.390;10.856;2023-01-31T09:54:19;12.98;;;5.75;;
42000;SDS011;27689;48.390;10.856;2023-01-31T09:59:58;10.70;;;5.70;;
42000;SDS011;27689;48.390;10.856;2023-01-31T10:03:10;12.05;;;6.35;;
42000;SDS011;27689;48.390;10.856;2023-01-31T10:11:52;12.90;;;6.22;;
42000;SDS011;27689;48.390;10.856;2023-01-31T10:14:44;12.38;;;5.80;;
42000;SDS011;27689;48.390;10.856;2023-01-31T10:17:35;15.32;;;6.30;;
42000;SDS011;27689;48.390;10.856;2023-01-31T10:20:36;10.68;;;5.60;;
42000;SDS011;27689;48.390;10.856;2023-01-31T10:26:26;9.60;;;5.03;;
42000;SDS011;27689;48.390;10.856;2023-01-31T10:29:17;14.90;;;6.65;;
42000;SDS011;27689;48.390;10.856;2023-01-31T10:35:27;8.10;;;4.03;;
42000;SDS011;27689;48.390;10.856;2023-01-31T10:38:22;8.88;;;4.45;;
42000;SDS011;27689;48.390;10.856;2023-01-31T10:41:16;6.20;;;3.70;;
42000;SDS011;27689;48.390;10.856;2023-01-31T10:44:06;14.85;;;5.20;;
42000;SDS011;27689;48.390;10.856;2023-01-31T10:49:45;9.73;;;4.00;;
42000;SDS011;27689;48.390;10.856;2023-01-31T10:56:02;8.93;;;5.10;;
42000;SDS011;27689;48.390;10.856;2023-01-31T10:58:48;12.85;;;5.22;;
42000;SDS011;27689;48.390;10.856;2023-01-31T11:01:33;12.82;;;4.90;;
42000;SDS011;27689;48.390;10.856;2023-01-31T11:07:12;8.80;;;4.13;;
42000;SDS011;27689;48.390;10.856;2023-01-31T11:09:56;11.02;;;4.70;;
42000;SDS011;27689;48.390;10.856;2023-01-31T11:12:42;11.88;;;4.97;;
42000;SDS011;27689;48.390;10.856;2023-01-31T11:15:39;11.93;;;5.60;;
42000;SDS011;27689;48.390;10.856;2023-01-31T11:18:35;13.32;;;5.18;;
42000;SDS011;27689;48.390;10.856;2023-01-31T11:21:31;11.77;;;5.60;;
42000;SDS011;27689;48.390;10.856;2023-01-31T11:24:26;7.78;;;3.97;;
42000;SDS011;27689;48.390;10.856;2023-01-31T11:27:14;10.82;;;4.45;;
42000;SDS011;27689;48.390;10.856;2023-01-31T11:30:24;12.38;;;5.35;;
42000;SDS011;27689;48.390;10.856;2023-01-31T11:33:35;9.15;;;4.60;;
42000;SDS011;27689;48.390;10.856;2023-01-31T11:36:32;11.65;;;3.90;;
42000;SDS011;27689;48.390;10.856;2023-01-31T11:39:27;11.77;;;3.63;;
42000;SDS011;27689;48.390;10.856;2023-01-31T11:42:15;9.23;;;3.90;;
42000;SDS011;27689;48.390;10.856;2023-01-31T11:45:00;10.93;;;3.80;;
42000;SDS011;27689;48.390;10.856;2023-01-31T11:48:15;9.27;;;3.58;;
42000;SDS011;27689;48.390;10.856;2023-01-31T11:51:04;8.70;;;3.67;;
42000;SDS011;27689;48.390;10.856;2023-01-31T11:53:49;11.88;;;4.00;;
42000;SDS011;27689;48.390;10.856;2023-01-31T11:56:34;7.03;;;3.35;;
42000;SDS011;27689;48.390;10.856;2023-01-31T11:59:21;8.38;;;3.10;;
42000;SDS011;27689;48.390;10.856;2023-01-31T12:02:18;9.60;;;3.67;;
42000;SDS011;27689;48.390;10.856;2023-01-31T12:05:18;6.72;;;3.50;;
42000;SDS011;27689;48.390;10.856;2023-01-31T12:08:02;11.27;;;4.07;;
42000;SDS011;27689;48.390;10.856;2023-01-31T12:10:47;9.27;;;3.45;;
42000;SDS011;27689;48.390;10.856;2023-01-31T12:13:44;7.15;;;3.75;;
42000;SDS011;27689;48.390;10.856;2023-01-31T12:16:32;10.77;;;3.92;;
42000;SDS011;27689;48.390;10.856;2023-01-31T12:19:23;8.93;;;3.70;;
42000;SDS011;27689;48.390;10.856;2023-01-31T12:22:16;11.00;;;4.53;;
42000;SDS011;27689;48.390;10.856;2023-01-31T12:34:01;5.95;;;3.40;;
42000;SDS011;27689;48.390;10.856;2023-01-31T12:43:35;8.45;;;3.70;;
42000;SDS011;27689;48.390;10.856;2023-01-31T12:53:04;7.32;;;4.07;;
42000;SDS011;27689;48.390;10.856;2023-01-31T13:05:11;8.37;;;4.87;;
42000;SDS011;27689;48.390;10.856;2023-01-31T13:08:27;4.30;;;3.17;;
42000;SDS011;27689;48.390;10.856;2023-01-31T13:14:03;9.43;;;3.50;;
42000;SDS011;27689;48.390;10.856;2023-01-31T13:16:59;8.18;;;4.25;;
42000;SDS011;27689;48.390;10.856;2023-01-31T13:19:53;8.85;;;3.55;;
42000;SDS011;27689;48.390;10.856;2023-01-31T13:25:37;7.63;;;3.92;;
42000;SDS011;27689;48.390;10.856;2023-01-31T13:28:40;7.93;;;3.78;;
42000;SDS011;27689;48.390;10.856;2023-01-31T13:31:33;7.93;;;3.88;;
42000;SDS011;27689;48.390;10.856;2023-01-31T13:34:30;8.60;;;3.78;;
42000;SDS011;27689;48.390;10.856;2023-01-31T13:37:21;6.93;;;3.92;;
42000;SDS011;27689;48.390;10.856;2023-01-31T13:40:19;6.88;;;3.65;;
42000;SDS011;27689;48.390;10.856;2023-01-31T13:43:10;10.23;;;4.30;;
42000;SDS011;27689;48.390;10.856;2023-01-31T13:46:00;8.88;;;4.40;;
42000;SDS011;27689;48.390;10.856;2023-01-31T13:48:50;6.60;;;3.47;;
42000;SDS011;27689;48.390;10.856;2023-01-31T13:51:42;9.30;;;4.47;;
42000;SDS011;27689;48.390;10.856;2023-01-31T13:54:44;8.73;;;4.03;;
42000;SDS011;27689;48.390;10.856;2023-01-31T13:57:33;8.02;;;4.18;;
42000;SDS011;27689;48.390;10.856;2023-01-31T14:00:30;5.82;;;3.72;;
42000;SDS011;27689;48.390;10.856;2023-01-31T14:03:17;8.38;;;4.53;;
42000;SDS011;27689;48.390;10.856;2023-01-31T14:06:03;8.98;;;4.00;;
42000;SDS011;27689;48.390;10.856;2023-01-31T14:11:33;8.93;;;4.28;;
42000;SDS011;27689;48.390;10.856;2023-01-31T14:14:28;5.57;;;4.35;;
42000;SDS011;27689;48.390;10.856;2023-01-31T14:20:23;7.43;;;4.95;;
42000;SDS011;27689;48.390;10.856;2023-01-31T14:23:29;7.45;;;4.90;;
42000;SDS011;27689;48.390;10.856;2023-01-31T14:29:25;6.97;;;4.50;;
42000;SDS011;27689;48.390;10.856;2023-01-31T14:32:13;8.10;;;5.10;;
42000;SDS011;27689;48.390;10.856;2023-01-31T14:35:03;10.27;;;5.13;;
42000;SDS011;27689;48.390;10.856;2023-01-31T14:38:12;10.25;;;4.88;;
42000;SDS011;27689;48.390;10.856;2023-01-31T14:41:10;10.52;;;5.40;;
42000;SDS011;27689;48.390;10.856;2023-01-31T14:47:52;9.35;;;5.72;;
42000;SDS011;27689;48.390;10.856;2023-01-31T14:51:01;7.95;;;5.03;;
42000;SDS011;27689;48.390;10.856;2023-01-31T14:54:03;8.70;;;4.97;;
42000;SDS011;27689;48.390;10.856;2023-01-31T14:57:04;12.05;;;5.10;;
42000;SDS011;27689;48.390;10.856;2023-01-31T15:03:00;8.18;;;5.95;;
42000;SDS011;27689;48.390;10.856;2023-01-31T15:05:51;9.82;;;5.25;;
42000;SDS011;27689;48.390;10.856;2023-01-31T15:08:40;11.82;;;6.30;;
42000;SDS011;27689;48.390;10.856;2023-01-31T15:11:37;9.05;;;5.18;;
42000;SDS011;27689;48.390;10.856;2023-01-31T15:14:31;8.48;;;5.28;;
42000;SDS011;27689;48.390;10.856;2023-01-31T15:17:25;8.43;;;5.95;;
42000;SDS011;27689;48.390;10.856;2023-01-31T15:20:15;7.55;;;5.40;;
42000;SDS011;27689;48.390;10.856;2023-01-31T15:23:03;8.23;;;5.45;;
42000;SDS011;27689;48.390;10.856;2023-01-31T15:25:51;9.13;;;5.85;;
42000;SDS011;27689;48.390;10.856;2023-01-31T15:28:40;11.52;;;5.32;;
42000;SDS011;27689;48.390;10.856;2023-01-31T15:31:30;8.32;;;4.90;;
42000;SDS011;27689;48.390;10.856;2023-01-31T15:34:19;8.32;;;5.78;;
42000;SDS011;27689;48.390;10.856;2023-01-31T15:37:14;9.38;;;5.18;;
42000;SDS011;27689;48.390;10.856;2023-01-31T15:40:09;10.10;;;5.63;;
42000;SDS011;27689;48.390;10.856;2023-01-31T15:46:20;7.43;;;4.93;;
42000;SDS011;27689;48.390;10.856;2023-01-31T15:49:16;8.93;;;5.32;;
42000;SDS011;27689;48.390;10.856;2023-01-31T15:52:15;8.40;;;5.18;;
42000;SDS011;27689;48.390;10.856;2023-01-31T15:55:03;9.10;;;5.00;;
42000;SDS011;27689;48.390;10.856;2023-01-31T15:57:50;8.38;;;5.32;;
42000;SDS011;27689;48.390;10.856;2023-01-31T16:00:40;8.25;;;5.20;;
42000;SDS011;27689;48.390;10.856;2023-01-31T16:03:25;9.18;;;5.72;;
42000;SDS011;27689;48.390;10.856;2023-01-31T16:09:24;7.53;;;5.15;;
42000;SDS011;27689;48.390;10.856;2023-01-31T16:12:09;11.10;;;4.90;;
42000;SDS011;27689;48.390;10.856;2023-01-31T16:14:57;10.18;;;5.70;;
42000;SDS011;27689;48.390;10.856;2023-01-31T16:17:45;8.52;;;5.43;;
42000;SDS011;27689;48.390;10.856;2023-01-31T16:23:32;9.43;;;5.20;;
42000;SDS011;27689;48.390;10.856;2023-01-31T16:26:22;8.32;;;5.50;;
42000;SDS011;27689;48.390;10.856;2023-01-31T16:29:13;9.43;;;5.78;;
42000;SDS011;27689;48.390;10.856;2023-01-31T16:32:00;10.05;;;5.90;;
42000;SDS011;27689;48.390;10.856;2023-01-31T16:34:44;7.00;;;5.35;;
42000;SDS011;27689;48.390;10.856;2023-01-31T16:37:39;9.55;;;5.75;;
42000;SDS011;27689;48.390;10.856;2023-01-31T16:40:27;8.77;;;5.30;;
42000;SDS011;27689;48.390;10.856;2023-01-31T16:43:24;8.30;;;5.65;;
42000;SDS011;27689;48.390;10.856;2023-01-31T16:46:17;10.50;;;5.70;;
42000;SDS011;27689;48.390;10.856;2023-01-31T16:49:04;10.63;;;6.45;;
42000;SDS011;27689;48.390;10.856;2023-01-31T16:51:53;11.30;;;5.47;;
42000;SDS011;27689;48.390;10.856;2023-01-31T16:54:59;8.50;;;6.25;;
42000;SDS011;27689;48.390;10.856;2023-01-31T17:03:12;9.90;;;6.05;;
42000;SDS011;27689;48.390;10.856;2023-01-31T17:06:01;9.95;;;6.38;;
42000;SDS011;27689;48.390;10.856;2023-01-31T17:08:46;10.90;;;6.07;;
42000;SDS011;27689;48.390;10.856;2023-01-31T17:11:30;9.25;;;6.10;;
42000;SDS011;27689;48.390;10.856;2023-01-31T17:14:15;7.85;;;5.20;;
42000;SDS011;27689;48.390;10.856;2023-01-31T17:16:59;10.43;;;5.83;;
42000;SDS011;27689;48.390;10.856;2023-01-31T17:19:43;12.02;;;5.03;;
42000;SDS011;27689;48.390;10.856;2023-01-31T17:22:27;7.90;;;5.15;;
42000;SDS011;27689;48.390;10.856;2023-01-31T17:25:18;7.18;;;5.13;;
42000;SDS011;27689;48.390;10.856;2023-01-31T17:28:05;8.57;;;5.40;;
42000;SDS011;27689;48.390;10.856;2023-01-31T17:30:49;6.85;;;4.95;;
42000;SDS011;27689;48.390;10.856;2023-01-31T17:33:33;5.88;;;4.82;;
42000;SDS011;27689;48.390;10.856;2023-01-31T17:36:17;6.50;;;4.90;;
42000;SDS011;27689;48.390;10.856;2023-01-31T17:39:01;8.57;;;5.03;;
42000;SDS011;27689;48.390;10.856;2023-01-31T17:41:45;8.38;;;5.22;;
42000;SDS011;27689;48.390;10.856;2023-01-31T17:44:29;8.80;;;5.25;;
42000;SDS011;27689;48.390;10.856;2023-01-31T17:47:14;8.25;;;4.65;;
42000;SDS011;27689;48.390;10.856;2023-01-31T17:49:58;8.60;;;4.57;;
42000;SDS011;27689;48.390;10.856;2023-01-31T17:52:42;8.68;;;5.32;;
42000;SDS011;27689;48.390;10.856;2023-01-31T17:55:26;11.20;;;4.65;;
42000;SDS011;27689;48.390;10.856;2023-01-31T17:58:11;9.57;;;5.20;;
42000;SDS011;27689;48.390;10.856;2023-01-31T18:00:59;8.48;;;4.63;;
42000;SDS011;27689;48.390;10.856;2023-01-31T18:03:44;8.38;;;5.03;;
42000;SDS011;27689;48.390;10.856;2023-01-31T18:06:28;8.27;;;5.25;;
42000;SDS011;27689;48.390;10.856;2023-01-31T18:09:13;6.97;;;4.15;;
42000;SDS011;27689;48.390;10.856;2023-01-31T18:11:58;9.55;;;5.20;;
42000;SDS011;27689;48.390;10.856;2023-01-31T18:14:42;8.75;;;4.68;;
42000;SDS011;27689;48.390;10.856;2023-01-31T18:17:26;9.15;;;4.53;;
42000;SDS011;27689;48.390;10.856;2023-01-31T18:20:10;7.25;;;4.68;;
42000;SDS011;27689;48.390;10.856;2023-01-31T18:22:54;8.57;;;4.80;;
42000;SDS011;27689;48.390;10.856;2023-01-31T18:25:38;10.93;;;5.35;;
42000;SDS011;27689;48.390;10.856;2023-01-31T18:28:23;9.70;;;4.65;;
42000;SDS011;27689;48.390;10.856;2023-01-31T18:31:07;7.80;;;4.37;;
42000;SDS011;27689;48.390;10.856;2023-01-31T18:33:53;9.15;;;4.55;;
42000;SDS011;27689;48.390;10.856;2023-01-31T18:36:37;10.20;;;5.23;;
42000;SDS011;27689;48.390;10.856;2023-01-31T18:39:22;10.02;;;5.25;;
42000;SDS011;27689;48.390;10.856;2023-01-31T18:42:07;12.07;;;5.05;;
42000;SDS011;27689;48.390;10.856;2023-01-31T18:44:51;10.70;;;5.70;;
42000;SDS011;27689;48.390;10.856;2023-01-31T18:47:35;10.20;;;5.40;;
42000;SDS011;27689;48.390;10.856;2023-01-31T18:50:18;8.37;;;4.93;;